Speedwell, Tennessee
Current Conditions -  °F | °C
As of 12:15 PM on Thursday 27 Nov 2014 (Local Time) from KMOR Reporting Station
Broken Clouds Broken Clouds  
Wind Chill: 31°   Ceiling: 3400
Heat Index: 37°   Visibility: 10mi
Dew Point: 30°   Wind: 9mph
Humidity: 75%   Direction: 280°W
Pressure: 30.25"   Gusts: NA
Location:  36.46°N, 83.87°W
Report Text: KMOR 271715Z AUTO 28008KT 10SM FEW022 BKN034 03/M01 A3025 RMK
Loading
Personal Weather Stations






























Interactive Weather Map New forecast layout! Learn more

10-Day Weather Forecast

Advertisements
Track Severe Weather on mobile